createdAt,value
2018-05-27T00:01:16.933Z,101380.02
2018-05-27T00:03:44.326Z,101375.03
2018-05-27T00:06:11.753Z,101367.47
2018-05-27T00:08:39.144Z,101372.36
2018-05-27T00:11:06.909Z,101370.59
2018-05-27T00:13:34.309Z,101369.30
2018-05-27T00:16:01.691Z,101372.82
2018-05-27T00:18:29.093Z,101373.80
2018-05-27T00:20:56.485Z,101368.30
2018-05-27T00:23:23.886Z,101362.87
2018-05-27T00:25:51.277Z,101358.19
2018-05-27T00:28:18.681Z,101361.20
2018-05-27T00:30:46.081Z,101360.37
2018-05-27T00:33:13.473Z,101353.59
2018-05-27T00:35:40.865Z,101356.97
2018-05-27T00:38:08.254Z,101358.50
2018-05-27T00:40:35.652Z,101350.47
2018-05-27T00:43:03.038Z,101356.91
2018-05-27T00:45:30.489Z,101363.41
2018-05-27T00:47:57.897Z,101361.64
2018-05-27T00:50:25.282Z,101364.48
2018-05-27T00:52:52.700Z,101359.66
2018-05-27T00:55:20.085Z,101360.72
2018-05-27T00:57:47.465Z,101360.72
2018-05-27T01:00:14.874Z,101363.18
2018-05-27T01:02:42.285Z,101366.56
2018-05-27T01:05:09.696Z,101364.09
2018-05-27T01:07:37.079Z,101365.70
2018-05-27T01:10:04.471Z,101367.31
2018-05-27T01:12:31.874Z,101363.38
2018-05-27T01:14:59.283Z,101364.34
2018-05-27T01:17:26.680Z,101369.11
2018-05-27T01:19:54.077Z,101367.25
2018-05-27T01:22:21.485Z,101367.63
2018-05-27T01:24:48.882Z,101363.56
2018-05-27T01:27:16.272Z,101362.02
2018-05-27T01:29:43.685Z,101363.66
2018-05-27T01:32:11.082Z,101366.56
2018-05-27T01:34:38.461Z,101356.26
2018-05-27T01:37:05.873Z,101355.71
2018-05-27T01:39:33.267Z,101353.73
2018-05-27T01:42:00.660Z,101346.08
2018-05-27T01:44:28.385Z,101348.63
2018-05-27T01:46:55.776Z,101343.88
2018-05-27T01:49:23.169Z,101337.39
2018-05-27T01:51:50.569Z,101339.80
2018-05-27T01:54:17.968Z,101332.22
2018-05-27T01:56:45.350Z,101336.94
2018-05-27T01:59:12.747Z,101337.15
2018-05-27T02:01:40.185Z,101333.80
2018-05-27T02:04:07.569Z,101329.63
2018-05-27T02:06:34.973Z,101328.97
2018-05-27T02:09:02.370Z,101324.52
2018-05-27T02:11:29.765Z,101324.02
2018-05-27T02:13:57.165Z,101325.77
2018-05-27T02:16:24.598Z,101324.52
2018-05-27T02:18:51.993Z,101322.94
2018-05-27T02:21:19.382Z,101326.10
2018-05-27T02:23:46.784Z,101329.09
2018-05-27T02:26:14.173Z,101328.04
2018-05-27T02:28:41.561Z,101325.14
2018-05-27T02:31:08.957Z,101327.45
2018-05-27T02:33:36.342Z,101327.53
2018-05-27T02:36:03.737Z,101320.94
2018-05-27T02:38:31.128Z,101324.64
2018-05-27T02:40:58.509Z,101324.34
2018-05-27T02:43:25.915Z,101323.53
2018-05-27T02:45:53.297Z,101323.74
2018-05-27T02:48:20.691Z,101324.91
2018-05-27T02:50:48.085Z,101324.70
2018-05-27T02:53:15.481Z,101334.31
2018-05-27T02:55:42.869Z,101325.06
2018-05-27T02:58:10.249Z,101329.92
2018-05-27T03:00:37.977Z,101324.22
2018-05-27T03:03:05.366Z,101326.41
2018-05-27T03:05:32.756Z,101323.20
2018-05-27T03:08:00.148Z,101321.03
2018-05-27T03:10:27.529Z,101315.72
2018-05-27T03:12:54.949Z,101316.61
2018-05-27T03:15:22.334Z,101307.38
2018-05-27T03:17:49.721Z,101311.50
2018-05-27T03:20:17.117Z,101305.39
2018-05-27T03:22:44.518Z,101311.59
2018-05-27T03:25:11.930Z,101310.61
2018-05-27T03:27:39.320Z,101312.46
2018-05-27T03:30:06.981Z,101309.77
2018-05-27T03:32:34.373Z,101301.14
2018-05-27T03:35:01.774Z,101304.16
2018-05-27T03:37:29.178Z,101301.92
2018-05-27T03:39:56.565Z,101298.37
2018-05-27T03:42:23.976Z,101305.30
2018-05-27T03:44:51.372Z,101307.92
2018-05-27T03:47:18.789Z,101314.22
2018-05-27T03:49:46.177Z,101314.89
2018-05-27T03:52:13.577Z,101313.28
2018-05-27T03:54:40.978Z,101312.19
2018-05-27T03:57:08.369Z,101309.14
2018-05-27T03:59:35.769Z,101306.22
2018-05-27T04:02:03.164Z,101311.56
2018-05-27T04:07:44.002Z,101318.61
2018-05-27T04:10:11.405Z,101319.72
2018-05-27T04:12:38.796Z,101325.56
2018-05-27T04:15:06.188Z,101329.98
2018-05-27T04:17:33.602Z,101330.22
2018-05-27T04:20:01.000Z,101331.23
2018-05-27T04:22:28.399Z,101326.19
2018-05-27T04:24:55.793Z,101327.54
2018-05-27T04:27:23.189Z,101332.16
2018-05-27T04:29:50.599Z,101333.36
2018-05-27T04:32:17.973Z,101339.27
2018-05-27T04:34:45.373Z,101329.47
2018-05-27T04:37:12.767Z,101340.19
2018-05-27T04:39:40.161Z,101336.58
2018-05-27T04:42:07.570Z,101335.73
2018-05-27T04:44:34.961Z,101337.17
2018-05-27T04:47:02.372Z,101336.87
2018-05-27T04:49:29.760Z,101334.18
2018-05-27T04:51:57.154Z,101340.89
2018-05-27T04:54:24.557Z,101340.56
2018-05-27T04:56:51.945Z,101333.59
2018-05-27T04:59:19.357Z,101332.45
2018-05-27T05:01:46.752Z,101323.83
2018-05-27T05:04:14.164Z,101328.02
2018-05-27T05:06:41.551Z,101332.61
2018-05-27T05:09:08.945Z,101330.91
2018-05-27T05:11:36.351Z,101331.98
2018-05-27T05:14:03.749Z,101330.38
2018-05-27T05:16:31.148Z,101327.75
2018-05-27T05:18:58.539Z,101319.05
2018-05-27T05:21:25.949Z,101321.95
2018-05-27T05:23:53.333Z,101319.44
2018-05-27T05:26:20.729Z,101314.77
2018-05-27T05:28:48.125Z,101313.17
2018-05-27T05:31:16.313Z,101317.83
2018-05-27T05:33:43.720Z,101314.59
2018-05-27T05:36:11.113Z,101320.31
2018-05-27T05:38:38.624Z,101332.14
2018-05-27T05:41:05.980Z,101330.30
2018-05-27T05:43:33.413Z,101336.59
2018-05-27T05:46:00.793Z,101335.77
2018-05-27T05:48:28.181Z,101334.98
2018-05-27T05:50:55.581Z,101334.94
2018-05-27T05:53:22.969Z,101339.45
2018-05-27T05:55:50.365Z,101332.83
2018-05-27T05:58:18.929Z,101329.27
2018-05-27T06:00:46.961Z,101327.55
2018-05-27T06:03:14.371Z,101334.33
2018-05-27T06:05:41.761Z,101334.98
2018-05-27T06:08:09.162Z,101336.80
2018-05-27T06:10:36.632Z,101341.30
2018-05-27T06:13:04.033Z,101344.78
2018-05-27T06:15:31.421Z,101345.27
2018-05-27T06:17:58.836Z,101347.87
2018-05-27T06:20:26.234Z,101353.78
2018-05-27T06:22:53.621Z,101355.63
2018-05-27T06:25:21.020Z,101356.52
2018-05-27T06:27:48.416Z,101351.73
2018-05-27T06:30:15.813Z,101351.41
2018-05-27T06:32:43.269Z,101355.18
2018-05-27T06:35:10.669Z,101352.11
2018-05-27T06:37:38.073Z,101350.52
2018-05-27T06:40:05.461Z,101348.61
2018-05-27T06:42:32.857Z,101349.90
2018-05-27T06:45:00.243Z,101347.34
2018-05-27T06:47:27.645Z,101348.30
2018-05-27T06:49:55.024Z,101345.94
2018-05-27T06:52:22.413Z,101343.80
2018-05-27T06:54:49.809Z,101341.84
2018-05-27T06:57:17.192Z,101346.11
2018-05-27T06:59:44.590Z,101343.27
2018-05-27T07:02:11.980Z,101344.84
2018-05-27T07:04:39.400Z,101341.82
2018-05-27T07:07:06.760Z,101343.85
2018-05-27T07:09:34.150Z,101345.14
2018-05-27T07:12:01.541Z,101347.03
2018-05-27T07:14:28.960Z,101346.45
2018-05-27T07:16:56.330Z,101343.89
2018-05-27T07:19:23.728Z,101338.21
2018-05-27T07:21:51.154Z,101338.43
2018-05-27T07:24:18.547Z,101337.50
2018-05-27T07:26:45.940Z,101339.46
2018-05-27T07:29:13.323Z,101341.64
2018-05-27T07:31:40.716Z,101337.70
2018-05-27T07:34:08.117Z,101336.22
2018-05-27T07:36:35.526Z,101337.53
2018-05-27T07:39:02.916Z,101331.50
2018-05-27T07:41:30.305Z,101330.77
2018-05-27T07:43:57.693Z,101325.27
2018-05-27T07:46:25.083Z,101328.80
2018-05-27T07:48:52.481Z,101318.47
2018-05-27T07:51:19.883Z,101322.45
2018-05-27T07:53:47.285Z,101313.55
2018-05-27T07:56:14.678Z,101315.77
2018-05-27T07:58:42.065Z,101315.16
2018-05-27T08:01:09.469Z,101310.66
2018-05-27T08:03:36.868Z,101306.22
2018-05-27T08:06:04.257Z,101305.80
2018-05-27T08:08:31.653Z,101305.95
2018-05-27T08:10:59.066Z,101300.48
2018-05-27T08:13:26.492Z,101297.72
2018-05-27T08:15:53.909Z,101290.67
2018-05-27T08:18:21.296Z,101286.12
2018-05-27T08:20:48.701Z,101288.23
2018-05-27T08:23:16.089Z,101283.15
2018-05-27T08:25:43.483Z,101287.44
2018-05-27T08:28:10.876Z,101292.44
2018-05-27T08:30:38.278Z,101292.36
2018-05-27T08:33:05.668Z,101292.34
2018-05-27T08:35:33.080Z,101285.32
2018-05-27T08:38:00.469Z,101293.23
2018-05-27T08:40:27.854Z,101290.74
2018-05-27T08:42:55.278Z,101297.05
2018-05-27T08:45:22.688Z,101299.33
2018-05-27T08:47:50.081Z,101304.03
2018-05-27T08:50:17.464Z,101301.86
2018-05-27T08:52:44.872Z,101313.30
2018-05-27T08:55:12.257Z,101306.76
2018-05-27T08:57:39.650Z,101308.01
2018-05-27T09:00:07.041Z,101301.24
2018-05-27T09:02:34.428Z,101304.47
2018-05-27T09:05:01.841Z,101304.48
2018-05-27T09:07:29.232Z,101305.33
2018-05-27T09:09:56.625Z,101304.61
2018-05-27T09:12:24.018Z,101302.41
2018-05-27T09:14:51.413Z,101304.60
2018-05-27T09:17:18.798Z,101301.28
2018-05-27T09:19:46.201Z,101299.83
2018-05-27T09:22:13.585Z,101300.66
2018-05-27T09:24:40.980Z,101295.89
2018-05-27T09:27:08.365Z,101298.70
2018-05-27T09:29:35.774Z,101290.06
2018-05-27T09:32:03.165Z,101293.60
2018-05-27T09:34:30.550Z,101294.13
2018-05-27T09:36:57.945Z,101288.94
2018-05-27T09:39:25.341Z,101290.95
2018-05-27T09:41:52.729Z,101292.48
2018-05-27T09:44:20.150Z,101280.65
2018-05-27T09:46:47.524Z,101286.68
2018-05-27T09:49:14.912Z,101282.31
2018-05-27T09:51:42.305Z,101285.34
2018-05-27T09:54:09.693Z,101280.02
2018-05-27T09:56:37.103Z,101273.56
2018-05-27T09:59:04.495Z,101277.52
2018-05-27T10:01:31.909Z,101267.64
2018-05-27T10:03:59.311Z,101269.91
2018-05-27T10:06:26.712Z,101271.16
2018-05-27T10:08:54.096Z,101271.27
2018-05-27T10:11:21.498Z,101261.17
2018-05-27T10:13:48.977Z,101268.22
2018-05-27T10:16:16.362Z,101256.98
2018-05-27T10:18:43.762Z,101255.73
2018-05-27T10:21:11.158Z,101249.67
2018-05-27T10:23:38.593Z,101251.70
2018-05-27T10:26:06.030Z,101248.30
2018-05-27T10:28:33.637Z,101240.50
2018-05-27T10:31:01.026Z,101233.94
2018-05-27T10:33:28.424Z,101242.00
2018-05-27T10:35:55.813Z,101239.53
2018-05-27T10:38:23.200Z,101243.19
2018-05-27T10:40:50.597Z,101240.23
2018-05-27T10:43:17.985Z,101250.77
2018-05-27T10:45:45.642Z,101244.84
2018-05-27T10:48:13.045Z,101245.49
2018-05-27T10:50:40.458Z,101249.19
2018-05-27T10:53:07.857Z,101254.09
2018-05-27T10:55:35.261Z,101261.19
2018-05-27T10:58:02.653Z,101257.03
2018-05-27T11:00:30.039Z,101261.09
2018-05-27T11:02:57.437Z,101264.53
2018-05-27T11:05:24.825Z,101276.41
2018-05-27T11:07:52.245Z,101275.77
2018-05-27T11:10:19.637Z,101272.08
2018-05-27T11:12:47.030Z,101271.78
2018-05-27T11:15:14.445Z,101264.34
2018-05-27T11:17:41.844Z,101265.60
2018-05-27T11:20:09.261Z,101259.61
2018-05-27T11:22:36.657Z,101260.55
2018-05-27T11:25:04.057Z,101265.55
2018-05-27T11:27:31.441Z,101261.49
2018-05-27T11:29:59.077Z,101268.16
2018-05-27T11:32:26.468Z,101264.30
2018-05-27T11:34:53.860Z,101265.66
2018-05-27T11:37:21.264Z,101257.27
2018-05-27T11:39:48.725Z,101263.00
2018-05-27T11:42:16.129Z,101261.55
2018-05-27T11:44:43.529Z,101261.23
2018-05-27T11:47:10.909Z,101264.98
2018-05-27T11:49:38.323Z,101258.44
2018-05-27T11:52:05.712Z,101249.94
2018-05-27T11:54:33.109Z,101253.05
2018-05-27T11:57:00.504Z,101248.69
2018-05-27T11:59:27.951Z,101244.11
2018-05-27T12:01:55.353Z,101241.83
2018-05-27T12:04:22.745Z,101234.47
2018-05-27T12:06:50.149Z,101231.88
2018-05-27T12:09:17.608Z,101228.64
2018-05-27T12:11:44.979Z,101230.73
2018-05-27T12:14:12.329Z,101226.66
2018-05-27T12:16:39.727Z,101229.30
2018-05-27T12:19:07.108Z,101232.52
2018-05-27T12:21:34.505Z,101236.16
2018-05-27T12:24:01.915Z,101239.89
2018-05-27T12:26:29.339Z,101222.14
2018-05-27T12:28:56.698Z,101222.30
2018-05-27T12:31:24.073Z,101225.62
2018-05-27T12:33:51.469Z,101230.73
2018-05-27T12:36:18.864Z,101224.39
2018-05-27T12:38:46.281Z,101230.71
2018-05-27T12:41:13.677Z,101228.75
2018-05-27T12:43:41.077Z,101229.46
2018-05-27T12:46:08.469Z,101231.52
2018-05-27T12:48:35.865Z,101236.72
2018-05-27T12:51:03.271Z,101227.88
2018-05-27T12:53:30.661Z,101233.47
2018-05-27T12:55:58.053Z,101232.48
2018-05-27T12:58:25.477Z,101232.72
2018-05-27T13:00:52.872Z,101226.89
2018-05-27T13:03:20.308Z,101223.45
2018-05-27T13:05:47.710Z,101216.19
2018-05-27T13:08:15.098Z,101206.74
2018-05-27T13:10:42.505Z,101201.24
2018-05-27T13:13:09.896Z,101204.66
2018-05-27T13:15:37.289Z,101191.37
2018-05-27T13:18:04.688Z,101185.03
2018-05-27T13:20:32.089Z,101176.10
2018-05-27T13:22:59.488Z,101168.42
2018-05-27T13:25:26.897Z,101164.08
2018-05-27T13:27:54.313Z,101151.41
2018-05-27T13:30:21.931Z,101148.30
2018-05-27T13:32:49.517Z,101142.69
2018-05-27T13:35:17.023Z,101142.08
2018-05-27T13:37:45.408Z,101143.92
2018-05-27T13:40:12.974Z,101146.73
2018-05-27T13:42:40.798Z,101145.84
2018-05-27T13:45:08.475Z,101148.87
2018-05-27T13:47:36.037Z,101154.36
2018-05-27T13:50:03.625Z,101158.20
2018-05-27T13:52:31.129Z,101163.59
2018-05-27T13:54:58.720Z,101164.41
2018-05-27T13:57:26.188Z,101175.44
2018-05-27T13:59:53.817Z,101169.48
2018-05-27T14:02:21.375Z,101173.48
2018-05-27T14:04:49.031Z,101178.54
2018-05-27T14:07:16.435Z,101181.84
2018-05-27T14:09:43.829Z,101188.27
2018-05-27T14:12:11.229Z,101187.98
2018-05-27T14:14:38.810Z,101189.39
2018-05-27T14:17:06.251Z,101184.81
2018-05-27T14:19:33.577Z,101178.91
2018-05-27T14:22:01.014Z,101176.16
2018-05-27T14:24:28.417Z,101166.19
2018-05-27T14:26:55.834Z,101170.50
2018-05-27T14:29:23.226Z,101163.58
2018-05-27T14:31:50.608Z,101156.33
2018-05-27T14:34:18.017Z,101154.09
2018-05-27T14:36:45.408Z,101147.92
2018-05-27T14:39:12.798Z,101147.62
2018-05-27T14:41:40.189Z,101150.18
2018-05-27T14:44:07.589Z,101138.72
2018-05-27T14:46:34.965Z,101134.45
2018-05-27T14:49:02.365Z,101139.51
2018-05-27T14:51:29.822Z,101135.36
2018-05-27T14:53:57.224Z,101132.48
2018-05-27T14:56:24.619Z,101131.46
2018-05-27T14:58:52.045Z,101133.92
2018-05-27T15:01:19.451Z,101137.02
2018-05-27T15:03:46.833Z,101139.84
2018-05-27T15:06:14.241Z,101143.50
2018-05-27T15:08:41.625Z,101139.54
2018-05-27T15:11:09.032Z,101143.94
2018-05-27T15:13:36.417Z,101159.13
2018-05-27T15:16:03.805Z,101161.13
2018-05-27T15:18:31.315Z,101168.45
2018-05-27T15:20:58.598Z,101177.08
2018-05-27T15:23:26.111Z,101183.50
2018-05-27T15:25:53.488Z,101180.36
2018-05-27T15:28:20.893Z,101187.47
2018-05-27T15:30:48.380Z,101190.81
2018-05-27T15:33:15.770Z,101195.43
2018-05-27T15:35:43.166Z,101198.05
2018-05-27T15:38:10.560Z,101199.22
2018-05-27T15:40:37.959Z,101200.61
2018-05-27T15:43:05.341Z,101196.07
2018-05-27T15:45:32.762Z,101195.61
2018-05-27T15:48:00.160Z,101196.20
2018-05-27T15:50:27.545Z,101184.67
2018-05-27T15:52:54.957Z,101181.25
2018-05-27T15:55:22.355Z,101193.98
2018-05-27T15:57:49.779Z,101184.52
2018-05-27T16:00:17.159Z,101182.45
2018-05-27T16:02:44.582Z,101182.36
2018-05-27T16:05:11.966Z,101175.39
2018-05-27T16:07:39.407Z,101168.73
2018-05-27T16:10:06.797Z,101171.97
2018-05-27T16:12:34.185Z,101162.09
2018-05-27T16:15:01.589Z,101172.91
2018-05-27T16:17:28.973Z,101166.67
2018-05-27T16:19:56.366Z,101171.60
2018-05-27T16:22:23.768Z,101173.48
2018-05-27T16:24:51.153Z,101170.78
2018-05-27T16:27:18.567Z,101172.86
2018-05-27T16:29:45.965Z,101175.67
2018-05-27T16:32:13.620Z,101182.37
2018-05-27T16:34:41.025Z,101175.71
2018-05-27T16:37:08.409Z,101181.33
2018-05-27T16:39:35.843Z,101175.50
2018-05-27T16:42:03.286Z,101173.43
2018-05-27T16:44:30.669Z,101175.51
2018-05-27T16:46:58.062Z,101172.42
2018-05-27T16:49:25.486Z,101174.30
2018-05-27T16:51:52.869Z,101175.85
2018-05-27T16:54:20.253Z,101182.51
2018-05-27T16:56:47.657Z,101167.02
2018-05-27T16:59:15.061Z,101171.69
2018-05-27T17:01:42.452Z,101172.53
2018-05-27T17:04:09.849Z,101167.64
2018-05-27T17:06:37.253Z,101173.05
2018-05-27T17:09:05.436Z,101169.75
2018-05-27T17:11:32.817Z,101169.44
2018-05-27T17:14:00.221Z,101162.16
2018-05-27T17:16:27.609Z,101152.98
2018-05-27T17:18:55.005Z,101152.05
2018-05-27T17:21:22.397Z,101143.62
2018-05-27T17:23:49.792Z,101131.78
2018-05-27T17:26:17.189Z,101116.42
2018-05-27T17:28:44.581Z,101111.95
2018-05-27T17:31:11.991Z,101117.25
2018-05-27T17:33:39.457Z,101130.86
2018-05-27T17:36:06.859Z,101153.64
2018-05-27T17:38:34.275Z,101166.62
2018-05-27T17:41:01.808Z,101169.02
2018-05-27T17:43:29.217Z,101158.30
2018-05-27T17:45:56.605Z,101153.75
2018-05-27T17:48:24.013Z,101141.59
2018-05-27T17:50:51.418Z,101153.48
2018-05-27T17:53:18.825Z,101160.77
2018-05-27T17:55:46.220Z,101165.53
2018-05-27T17:58:13.670Z,101158.77
2018-05-27T18:00:41.077Z,101154.71
2018-05-27T18:03:08.475Z,101154.91
2018-05-27T18:05:35.901Z,101151.29
2018-05-27T18:08:03.308Z,101146.50
2018-05-27T18:10:30.715Z,101141.41
2018-05-27T18:12:58.121Z,101142.32
2018-05-27T18:15:25.533Z,101143.88
2018-05-27T18:17:52.921Z,101143.27
2018-05-27T18:20:20.317Z,101140.36
2018-05-27T18:22:47.728Z,101142.42
2018-05-27T18:25:15.129Z,101149.98
2018-05-27T18:27:42.537Z,101154.65
2018-05-27T18:30:09.949Z,101154.02
2018-05-27T18:32:37.361Z,101161.89
2018-05-27T18:35:04.763Z,101165.52
2018-05-27T18:37:32.140Z,101166.14
2018-05-27T18:39:59.544Z,101168.23
2018-05-27T18:42:26.925Z,101169.27
2018-05-27T18:44:54.329Z,101161.69
2018-05-27T18:47:21.713Z,101163.55
2018-05-27T18:49:49.133Z,101158.06
2018-05-27T18:52:16.525Z,101153.08
2018-05-27T18:54:43.970Z,101156.61
2018-05-27T18:57:11.369Z,101157.55
2018-05-27T18:59:38.764Z,101160.56
2018-05-27T19:02:06.161Z,101163.44
2018-05-27T19:04:33.545Z,101167.59
2018-05-27T19:07:00.949Z,101181.72
2018-05-27T19:09:28.397Z,101184.10
2018-05-27T19:11:55.789Z,101191.56
2018-05-27T19:14:23.189Z,101205.02
2018-05-27T19:16:50.586Z,101215.06
2018-05-27T19:19:17.982Z,101211.10
2018-05-27T19:21:45.369Z,101220.58
2018-05-27T19:24:12.756Z,101226.66
2018-05-27T19:26:40.328Z,101229.73
2018-05-27T19:29:08.320Z,101239.43
2018-05-27T19:31:36.756Z,101233.81
2018-05-27T19:34:04.237Z,101245.98
2018-05-27T19:36:31.810Z,101256.00
2018-05-27T19:38:59.430Z,101264.92
2018-05-27T19:41:27.878Z,101258.16
2018-05-27T19:43:55.436Z,101259.78
2018-05-27T19:46:22.934Z,101247.86
2018-05-27T19:48:50.482Z,101253.56
2018-05-27T19:51:18.092Z,101249.20
2018-05-27T19:53:45.886Z,101243.23
2018-05-27T19:56:13.417Z,101245.06
2018-05-27T19:58:40.919Z,101244.29
2018-05-27T20:01:08.908Z,101246.24
2018-05-27T20:03:36.439Z,101244.60
2018-05-27T20:06:03.987Z,101243.95
2018-05-27T20:08:31.634Z,101247.67
2018-05-27T20:10:59.061Z,101243.41
2018-05-27T20:13:26.454Z,101243.37
2018-05-27T20:15:53.848Z,101243.47
2018-05-27T20:18:21.248Z,101241.89
2018-05-27T20:20:49.324Z,101241.02
2018-05-27T20:23:16.701Z,101239.73
2018-05-27T20:25:44.094Z,101236.20
2018-05-27T20:28:11.493Z,101232.06
2018-05-27T20:30:38.880Z,101229.33
2018-05-27T20:33:06.281Z,101223.40
2018-05-27T20:35:33.677Z,101222.14
2018-05-27T20:38:01.069Z,101218.75
2018-05-27T20:40:28.473Z,101210.59
2018-05-27T20:42:55.863Z,101210.16
2018-05-27T20:45:23.285Z,101207.05
2018-05-27T20:47:50.675Z,101213.05
2018-05-27T20:50:18.065Z,101218.20
2018-05-27T20:52:45.462Z,101216.13
2018-05-27T20:55:12.859Z,101217.75
2018-05-27T20:57:40.252Z,101221.66
2018-05-27T21:00:07.637Z,101223.31
2018-05-27T21:02:35.342Z,101228.56
2018-05-27T21:05:02.721Z,101230.70
2018-05-27T21:07:30.113Z,101231.40
2018-05-27T21:09:57.510Z,101235.72
2018-05-27T21:12:24.901Z,101235.26
2018-05-27T21:14:52.297Z,101235.25
2018-05-27T21:17:19.685Z,101239.23
2018-05-27T21:19:47.089Z,101238.59
2018-05-27T21:22:14.485Z,101239.61
2018-05-27T21:24:41.869Z,101242.30
2018-05-27T21:27:09.271Z,101246.67
2018-05-27T21:29:36.663Z,101248.98
2018-05-27T21:32:04.074Z,101248.38
2018-05-27T21:34:31.459Z,101248.66
2018-05-27T21:36:59.110Z,101248.34
2018-05-27T21:39:26.513Z,101250.52
2018-05-27T21:41:53.917Z,101253.95
2018-05-27T21:44:21.317Z,101253.72
2018-05-27T21:46:48.701Z,101259.19
2018-05-27T21:49:16.101Z,101262.77
2018-05-27T21:51:43.489Z,101257.34
2018-05-27T21:54:10.885Z,101250.05
2018-05-27T21:56:38.277Z,101246.72
2018-05-27T21:59:05.691Z,101250.20
2018-05-27T22:01:33.081Z,101240.59
2018-05-27T22:04:00.469Z,101245.31
2018-05-27T22:06:27.873Z,101243.41
2018-05-27T22:08:55.263Z,101242.20
2018-05-27T22:11:22.657Z,101246.42
2018-05-27T22:13:50.041Z,101243.68
2018-05-27T22:16:17.805Z,101250.98
2018-05-27T22:18:45.189Z,101249.08
2018-05-27T22:21:12.581Z,101249.96
2018-05-27T22:23:39.981Z,101247.03
2018-05-27T22:26:07.397Z,101254.45
2018-05-27T22:28:34.793Z,101260.55
2018-05-27T22:31:02.184Z,101257.06
2018-05-27T22:33:29.601Z,101264.38
2018-05-27T22:35:57.001Z,101259.52
2018-05-27T22:38:24.401Z,101267.91
2018-05-27T22:40:51.808Z,101270.74
2018-05-27T22:43:19.208Z,101267.96
2018-05-27T22:45:46.601Z,101265.92
2018-05-27T22:48:13.989Z,101261.06
2018-05-27T22:50:41.377Z,101259.39
2018-05-27T22:53:09.130Z,101267.87
2018-05-27T22:55:36.517Z,101267.03
2018-05-27T22:58:03.908Z,101265.78
2018-05-27T23:00:31.309Z,101266.30
2018-05-27T23:02:58.700Z,101265.45
2018-05-27T23:05:26.101Z,101264.20
2018-05-27T23:07:53.496Z,101266.30
2018-05-27T23:10:21.213Z,101263.93
2018-05-27T23:12:48.605Z,101261.01
2018-05-27T23:15:15.994Z,101253.72
2018-05-27T23:17:43.401Z,101251.64
2018-05-27T23:20:10.802Z,101254.09
2018-05-27T23:22:38.217Z,101264.52
2018-05-27T23:25:05.605Z,101275.45
2018-05-27T23:27:33.017Z,101276.47
2018-05-27T23:30:00.433Z,101287.94
2018-05-27T23:32:27.832Z,101285.61
2018-05-27T23:34:55.241Z,101286.81
2018-05-27T23:37:22.626Z,101289.34
2018-05-27T23:39:50.030Z,101292.96
2018-05-27T23:42:17.417Z,101281.14
2018-05-27T23:44:44.816Z,101275.94
2018-05-27T23:47:12.226Z,101276.03
2018-05-27T23:49:39.613Z,101280.39
2018-05-27T23:52:07.005Z,101275.29
2018-05-27T23:54:34.393Z,101272.72
2018-05-27T23:57:01.782Z,101272.60
2018-05-27T23:59:29.173Z,101275.14
